createdAt,value
2023-01-19T00:02:14.493Z,96922.03
2023-01-19T00:05:20.960Z,96923.94
2023-01-19T00:08:27.532Z,96928.72
2023-01-19T00:11:33.376Z,96919.72
2023-01-19T00:14:40.076Z,96916.72
2023-01-19T00:17:48.496Z,96931.00
2023-01-19T00:20:55.108Z,96939.97
2023-01-19T00:24:00.852Z,96929.66
2023-01-19T00:27:07.702Z,96939.19
2023-01-19T00:30:15.419Z,96932.53
2023-01-19T00:33:26.118Z,96937.44
2023-01-19T00:36:32.091Z,96938.75
2023-01-19T00:39:38.930Z,96937.47
2023-01-19T00:42:48.488Z,96943.31
2023-01-19T00:45:55.246Z,96935.16
2023-01-19T00:49:03.662Z,96935.00
2023-01-19T00:52:10.994Z,96937.22
2023-01-19T00:55:19.490Z,96934.44
2023-01-19T00:58:26.183Z,96926.00
2023-01-19T01:01:45.907Z,96926.28
2023-01-19T01:04:56.901Z,96908.81
2023-01-19T01:08:02.870Z,96908.91
2023-01-19T01:11:09.480Z,96906.38
2023-01-19T01:14:16.653Z,96907.56
2023-01-19T01:17:25.125Z,96907.56
2023-01-19T01:20:34.930Z,96905.41
2023-01-19T01:23:41.595Z,96906.53
2023-01-19T01:26:47.446Z,96919.91
2023-01-19T01:29:54.200Z,96928.88
2023-01-19T01:33:00.358Z,96947.28
2023-01-19T01:36:12.061Z,96932.03
2023-01-19T01:39:18.059Z,96933.03
2023-01-19T01:42:32.774Z,96928.31
2023-01-19T01:45:42.021Z,96920.69
2023-01-19T01:48:57.444Z,96902.84
2023-01-19T01:52:06.315Z,96907.41
2023-01-19T01:55:16.802Z,96912.91
2023-01-19T01:58:22.705Z,96909.56
2023-01-19T02:01:41.846Z,96920.53
2023-01-19T02:04:55.119Z,96910.47
2023-01-19T02:08:24.324Z,96910.06
2023-01-19T02:11:45.335Z,96928.59
2023-01-19T02:14:52.016Z,96928.56
2023-01-19T02:17:58.728Z,96928.81
2023-01-19T02:21:19.055Z,96924.53
2023-01-19T02:24:29.629Z,96931.75
2023-01-19T02:27:37.984Z,96935.38
2023-01-19T02:30:45.578Z,96936.06
2023-01-19T02:33:53.048Z,96935.06
2023-01-19T02:37:06.818Z,96936.41
2023-01-19T02:40:24.619Z,96944.69
2023-01-19T02:43:33.784Z,96940.34
2023-01-19T02:46:42.233Z,96946.19
2023-01-19T02:49:48.189Z,96950.88
2023-01-19T02:53:11.069Z,96956.38
2023-01-19T02:56:56.046Z,96954.94
2023-01-19T03:00:24.838Z,96953.47
2023-01-19T03:03:42.365Z,96946.84
2023-01-19T03:06:58.274Z,96950.41
2023-01-19T03:10:16.073Z,96944.06
2023-01-19T03:13:39.319Z,96949.44
2023-01-19T03:16:50.953Z,96947.66
2023-01-19T03:19:57.668Z,96947.16
2023-01-19T03:23:11.215Z,96956.38
2023-01-19T03:26:24.993Z,96952.03
2023-01-19T03:29:38.133Z,96949.25
2023-01-19T03:32:53.861Z,96964.78
2023-01-19T03:36:07.268Z,96950.34
2023-01-19T03:39:22.083Z,96958.13
2023-01-19T03:42:31.292Z,96957.47
2023-01-19T03:45:43.471Z,96965.94
2023-01-19T03:48:51.055Z,96960.56
2023-01-19T03:51:59.660Z,96960.41
2023-01-19T03:55:09.983Z,96971.28
2023-01-19T03:58:17.469Z,96960.25
2023-01-19T04:01:26.453Z,96974.09
2023-01-19T04:04:34.136Z,96980.09
2023-01-19T04:07:39.953Z,96981.53
2023-01-19T04:10:46.610Z,96980.91
2023-01-19T04:13:52.795Z,96983.34
2023-01-19T04:17:02.212Z,96975.41
2023-01-19T04:20:10.791Z,96979.31
2023-01-19T04:23:17.355Z,96977.66
2023-01-19T04:26:23.271Z,96987.91
2023-01-19T04:29:29.990Z,96991.78
2023-01-19T04:32:38.461Z,96999.22
2023-01-19T04:35:45.182Z,97004.41
2023-01-19T04:38:51.237Z,97013.31
2023-01-19T04:41:57.837Z,97003.94
2023-01-19T04:45:03.873Z,97004.25
2023-01-19T04:48:13.064Z,97008.47
2023-01-19T04:51:18.838Z,97016.25
2023-01-19T04:54:25.934Z,97023.41
2023-01-19T04:57:32.003Z,97029.72
2023-01-19T05:00:39.612Z,97029.38
2023-01-19T05:03:48.087Z,97037.84
2023-01-19T05:06:54.917Z,97039.78
2023-01-19T05:10:00.868Z,97037.19
2023-01-19T05:13:08.174Z,97039.28
2023-01-19T05:16:14.291Z,97030.84
2023-01-19T05:19:23.831Z,97039.75
2023-01-19T05:22:29.814Z,97025.28
2023-01-19T05:25:36.523Z,97024.81
2023-01-19T05:28:42.463Z,97038.56
2023-01-19T05:31:49.266Z,97025.09
2023-01-19T05:34:57.809Z,97015.38
2023-01-19T05:38:04.456Z,97013.81
2023-01-19T05:41:10.292Z,97002.63
2023-01-19T05:44:17.122Z,96994.84
2023-01-19T05:47:22.905Z,96999.78
2023-01-19T05:50:32.280Z,97003.34
2023-01-19T05:53:38.136Z,97006.59
2023-01-19T05:56:45.743Z,97010.81
2023-01-19T05:59:51.598Z,97013.25
2023-01-19T06:02:58.458Z,97017.28
2023-01-19T06:06:07.964Z,97019.31
2023-01-19T06:09:14.531Z,97011.22
2023-01-19T06:12:20.316Z,97012.66
2023-01-19T06:15:26.855Z,97022.34
2023-01-19T06:18:33.648Z,97019.44
2023-01-19T06:21:43.125Z,97017.88
2023-01-19T06:24:49.024Z,97028.91
2023-01-19T06:27:56.153Z,97035.06
2023-01-19T06:31:01.989Z,97046.28
2023-01-19T06:34:08.635Z,97052.94
2023-01-19T06:37:17.864Z,97059.69
2023-01-19T06:40:24.429Z,97071.19
2023-01-19T06:43:33.549Z,97075.72
2023-01-19T06:46:40.207Z,97081.56
2023-01-19T06:49:46.797Z,97096.97
2023-01-19T06:52:56.959Z,97095.81
2023-01-19T06:56:05.104Z,97105.00
2023-01-19T06:59:12.779Z,97119.84
2023-01-19T07:06:10.363Z,97088.63
2023-01-19T07:09:34.608Z,97141.09
2023-01-19T07:12:42.410Z,97095.94
2023-01-19T07:15:50.272Z,97104.97
2023-01-19T07:18:56.319Z,97134.38
2023-01-19T07:22:03.368Z,97118.69
2023-01-19T07:25:13.363Z,97134.50
2023-01-19T07:28:21.337Z,97132.00
2023-01-19T07:31:27.693Z,97132.78
2023-01-19T07:34:41.805Z,97141.53
2023-01-19T07:41:46.011Z,97161.66
2023-01-19T07:44:54.353Z,97156.63
2023-01-19T07:48:00.717Z,97155.03
2023-01-19T07:51:13.067Z,97113.94
2023-01-19T07:54:20.942Z,97141.41
2023-01-19T07:57:34.394Z,97130.00
2023-01-19T08:00:42.176Z,97167.81
2023-01-19T08:03:51.861Z,97127.34
2023-01-19T08:07:01.986Z,97168.25
2023-01-19T08:10:11.016Z,97175.88
2023-01-19T08:13:19.481Z,97197.41
2023-01-19T08:16:26.044Z,97183.78
2023-01-19T08:19:34.365Z,97193.63
2023-01-19T08:22:41.084Z,97194.44
2023-01-19T08:25:47.701Z,97194.75
2023-01-19T08:28:57.945Z,97187.59
2023-01-19T08:32:04.043Z,97188.00
2023-01-19T08:35:12.069Z,97191.72
2023-01-19T08:38:21.199Z,97181.06
2023-01-19T08:41:28.072Z,97184.06
2023-01-19T08:44:39.393Z,97190.09
2023-01-19T08:47:48.145Z,97186.66
2023-01-19T08:50:56.296Z,97184.38
2023-01-19T08:54:02.919Z,97194.38
2023-01-19T08:57:08.624Z,97196.09
2023-01-19T09:00:19.796Z,97202.69
2023-01-19T09:03:26.030Z,97209.13
2023-01-19T09:06:32.931Z,97237.19
2023-01-19T09:09:43.543Z,97227.66
2023-01-19T09:12:50.568Z,97225.75
2023-01-19T09:15:59.055Z,97225.88
2023-01-19T09:19:08.708Z,97223.63
2023-01-19T09:22:14.717Z,97239.19
2023-01-19T09:25:21.350Z,97236.97
2023-01-19T09:28:27.306Z,97235.19
2023-01-19T09:31:36.651Z,97233.59
2023-01-19T09:34:42.708Z,97226.09
2023-01-19T09:37:50.309Z,97232.59
2023-01-19T09:40:59.422Z,97229.75
2023-01-19T09:44:06.715Z,97230.22
2023-01-19T09:47:25.400Z,97229.06
2023-01-19T09:50:46.719Z,97223.00
2023-01-19T09:54:06.093Z,97212.06
2023-01-19T09:57:15.009Z,97207.31
2023-01-19T10:00:22.876Z,97206.34
2023-01-19T10:03:33.649Z,97201.03
2023-01-19T10:06:40.079Z,97199.88
2023-01-19T10:10:10.191Z,97200.63
2023-01-19T10:13:42.195Z,97217.09
2023-01-19T10:17:05.632Z,97211.91
2023-01-19T10:20:26.937Z,97202.59
2023-01-19T10:23:49.056Z,97184.09
2023-01-19T10:27:00.083Z,97193.69
2023-01-19T10:30:18.102Z,97200.59
2023-01-19T10:33:24.135Z,97184.28
2023-01-19T10:36:41.133Z,97204.50
2023-01-19T10:39:49.065Z,97193.69
2023-01-19T10:42:56.848Z,97189.00
2023-01-19T10:46:03.293Z,97187.59
2023-01-19T10:49:25.957Z,97191.66
2023-01-19T10:52:41.374Z,97189.72
2023-01-19T10:55:48.045Z,97185.59
2023-01-19T10:58:54.874Z,97182.28
2023-01-19T11:02:22.510Z,97180.03
2023-01-19T11:05:32.581Z,97173.66
2023-01-19T11:08:41.806Z,97180.56
2023-01-19T11:11:52.368Z,97177.22
2023-01-19T11:15:00.197Z,97165.97
2023-01-19T11:18:10.383Z,97163.22
2023-01-19T11:21:20.446Z,97153.44
2023-01-19T11:24:29.540Z,97149.91
2023-01-19T11:27:40.184Z,97157.31
2023-01-19T11:30:59.459Z,97158.28
2023-01-19T11:34:24.998Z,97168.78
2023-01-19T11:37:34.893Z,97164.94
2023-01-19T11:40:55.028Z,97156.13
2023-01-19T11:44:12.923Z,97175.38
2023-01-19T11:47:29.497Z,97169.25
2023-01-19T11:50:45.567Z,97161.28
2023-01-19T11:53:56.149Z,97156.28
2023-01-19T11:57:17.800Z,97160.09
2023-01-19T12:00:37.804Z,97169.97
2023-01-19T12:03:54.864Z,97163.16
2023-01-19T12:07:10.814Z,97164.94
2023-01-19T12:10:28.840Z,97175.38
2023-01-19T12:13:40.368Z,97168.25
2023-01-19T12:16:48.866Z,97171.06
2023-01-19T12:20:06.641Z,97171.22
2023-01-19T12:23:38.229Z,97168.25
2023-01-19T12:26:56.375Z,97166.03
2023-01-19T12:30:07.260Z,97167.47
2023-01-19T12:33:36.221Z,97163.59
2023-01-19T12:36:44.162Z,97172.13
2023-01-19T12:39:52.526Z,97166.38
2023-01-19T12:43:08.735Z,97182.09
2023-01-19T12:46:34.832Z,97177.16
2023-01-19T12:49:48.659Z,97175.78
2023-01-19T12:53:02.773Z,97175.47
2023-01-19T12:56:12.936Z,97167.69
2023-01-19T12:59:30.663Z,97166.34
2023-01-19T13:02:58.972Z,97166.00
2023-01-19T13:06:05.664Z,97178.19
2023-01-19T13:09:33.498Z,97184.59
2023-01-19T13:12:40.171Z,97186.47
2023-01-19T13:15:47.334Z,97187.75
2023-01-19T13:19:01.805Z,97191.84
2023-01-19T13:22:53.130Z,97203.81
2023-01-19T13:26:09.174Z,97204.19
2023-01-19T13:29:25.969Z,97209.66
2023-01-19T13:32:33.154Z,97220.78
2023-01-19T13:35:41.909Z,97215.84
2023-01-19T13:38:50.530Z,97200.44
2023-01-19T13:42:03.012Z,97205.91
2023-01-19T13:45:30.652Z,97225.81
2023-01-19T13:48:37.270Z,97225.78
2023-01-19T13:51:47.912Z,97233.53
2023-01-19T13:55:02.357Z,97228.34
2023-01-19T13:58:26.205Z,97230.84
2023-01-19T14:01:33.170Z,97235.53
2023-01-19T14:04:40.136Z,97233.66
2023-01-19T14:07:48.637Z,97245.50
2023-01-19T14:11:07.093Z,97252.88
2023-01-19T14:14:27.574Z,97250.94
2023-01-19T14:17:35.789Z,97247.19
2023-01-19T14:20:42.725Z,97249.34
2023-01-19T14:23:57.132Z,97262.66
2023-01-19T14:27:26.221Z,97255.97
2023-01-19T14:30:35.278Z,97253.28
2023-01-19T14:33:47.262Z,97250.28
2023-01-19T14:36:55.520Z,97257.53
2023-01-19T14:40:20.367Z,97255.06
2023-01-19T14:43:28.744Z,97262.94
2023-01-19T14:46:34.841Z,97257.38
2023-01-19T14:49:50.259Z,97262.94
2023-01-19T14:53:03.676Z,97256.41
2023-01-19T14:56:13.587Z,97261.47
2023-01-19T14:59:19.419Z,97269.50
2023-01-19T15:02:26.181Z,97266.09
2023-01-19T15:05:32.313Z,97271.41
2023-01-19T15:08:39.209Z,97271.84
2023-01-19T15:11:52.594Z,97271.16
2023-01-19T15:15:00.150Z,97272.66
2023-01-19T15:18:10.032Z,97269.75
2023-01-19T15:21:20.214Z,97275.47
2023-01-19T15:24:27.969Z,97277.00
2023-01-19T15:27:37.118Z,97268.72
2023-01-19T15:30:43.380Z,97287.75
2023-01-19T15:33:50.945Z,97278.06
2023-01-19T15:36:56.859Z,97276.81
2023-01-19T15:40:03.554Z,97279.16
2023-01-19T15:43:13.703Z,97290.63
2023-01-19T15:46:23.837Z,97288.31
2023-01-19T15:49:31.072Z,97288.44
2023-01-19T15:52:37.565Z,97286.00
2023-01-19T15:55:46.148Z,97285.88
2023-01-19T15:58:56.374Z,97277.28
2023-01-19T16:02:02.885Z,97288.31
2023-01-19T16:05:11.159Z,97290.22
2023-01-19T16:08:17.702Z,97299.88
2023-01-19T16:11:24.291Z,97307.09
2023-01-19T16:14:32.915Z,97309.28
2023-01-19T16:17:40.025Z,97312.25
2023-01-19T16:20:45.955Z,97306.16
2023-01-19T16:23:52.785Z,97316.63
2023-01-19T16:26:58.651Z,97313.38
2023-01-19T16:30:10.049Z,97314.41
2023-01-19T16:33:16.397Z,97314.53
2023-01-19T16:36:27.020Z,97315.75
2023-01-19T16:39:32.896Z,97310.88
2023-01-19T16:42:40.908Z,97316.63
2023-01-19T16:46:04.677Z,97319.22
2023-01-19T16:49:17.863Z,97327.34
2023-01-19T16:52:23.846Z,97328.69
2023-01-19T16:55:30.419Z,97332.50
2023-01-19T16:58:37.632Z,97335.91
2023-01-19T17:01:50.595Z,97334.41
2023-01-19T17:04:56.678Z,97332.34
2023-01-19T17:08:03.502Z,97335.31
2023-01-19T17:11:19.578Z,97332.72
2023-01-19T17:14:26.163Z,97327.56
2023-01-19T17:17:35.342Z,97327.03
2023-01-19T17:20:43.459Z,97328.91
2023-01-19T17:23:53.654Z,97331.91
2023-01-19T17:27:00.444Z,97329.53
2023-01-19T17:30:06.424Z,97333.59
2023-01-19T17:33:15.909Z,97341.75
2023-01-19T17:36:25.566Z,97340.78
2023-01-19T17:39:32.458Z,97339.00
2023-01-19T17:42:43.771Z,97331.41
2023-01-19T17:45:50.367Z,97343.94
2023-01-19T17:49:01.723Z,97339.09
2023-01-19T17:52:08.829Z,97344.84
2023-01-19T17:55:15.049Z,97345.28
2023-01-19T17:58:23.734Z,97348.09
2023-01-19T18:01:32.647Z,97347.31
2023-01-19T18:04:43.534Z,97352.03
2023-01-19T18:07:50.191Z,97356.00
2023-01-19T18:11:14.279Z,97349.22
2023-01-19T18:14:20.234Z,97359.16
2023-01-19T18:17:26.791Z,97362.84
2023-01-19T18:20:37.852Z,97344.09
2023-01-19T18:23:46.002Z,97361.41
2023-01-19T18:26:53.218Z,97371.31
2023-01-19T18:30:01.549Z,97366.16
2023-01-19T18:33:07.731Z,97362.31
2023-01-19T18:36:18.318Z,97359.19
2023-01-19T18:39:24.238Z,97371.00
2023-01-19T18:42:30.942Z,97374.13
2023-01-19T18:45:38.289Z,97379.06
2023-01-19T18:48:45.333Z,97375.34
2023-01-19T18:51:53.850Z,97380.66
2023-01-19T18:55:00.568Z,97383.81
2023-01-19T18:58:07.279Z,97389.53
2023-01-19T19:01:32.264Z,97391.81
2023-01-19T19:04:38.729Z,97390.34
2023-01-19T19:07:48.313Z,97404.50
2023-01-19T19:10:54.411Z,97409.13
2023-01-19T19:14:04.825Z,97419.72
2023-01-19T19:17:11.007Z,97427.09
2023-01-19T19:20:18.130Z,97426.81
2023-01-19T19:23:26.769Z,97423.06
2023-01-19T19:26:33.326Z,97428.50
2023-01-19T19:29:39.213Z,97442.44
2023-01-19T19:32:45.731Z,97442.72
2023-01-19T19:35:51.670Z,97442.84
2023-01-19T19:39:02.795Z,97448.44
2023-01-19T19:42:08.762Z,97443.25
2023-01-19T19:45:16.130Z,97454.03
2023-01-19T19:48:23.136Z,97453.22
2023-01-19T19:51:31.282Z,97450.78
2023-01-19T19:54:42.092Z,97453.91
2023-01-19T19:57:48.915Z,97460.03
2023-01-19T20:00:55.236Z,97465.88
2023-01-19T20:04:10.971Z,97469.56
2023-01-19T20:07:18.032Z,97466.44
2023-01-19T20:10:30.145Z,97469.41
2023-01-19T20:13:37.316Z,97479.06
2023-01-19T20:16:43.972Z,97488.63
2023-01-19T20:19:49.999Z,97495.97
2023-01-19T20:22:56.673Z,97494.19
2023-01-19T20:26:08.111Z,97499.22
2023-01-19T20:29:15.212Z,97500.59
2023-01-19T20:32:23.036Z,97508.66
2023-01-19T20:35:29.874Z,97507.13
2023-01-19T20:38:36.260Z,97508.91
2023-01-19T20:41:46.315Z,97515.59
2023-01-19T20:44:52.416Z,97520.88
2023-01-19T20:47:59.115Z,97528.78
2023-01-19T20:51:08.579Z,97529.31
2023-01-19T20:54:17.850Z,97527.41
2023-01-19T20:57:26.664Z,97539.00
2023-01-19T21:00:33.429Z,97541.56
2023-01-19T21:03:39.393Z,97531.75
2023-01-19T21:06:48.052Z,97520.03
2023-01-19T21:09:53.858Z,97534.25
2023-01-19T21:13:03.031Z,97537.91
2023-01-19T21:16:11.032Z,97540.94
2023-01-19T21:19:18.101Z,97540.38
2023-01-19T21:22:26.329Z,97545.06
2023-01-19T21:25:37.477Z,97544.38
2023-01-19T21:28:46.440Z,97550.91
2023-01-19T21:31:57.552Z,97545.00
2023-01-19T21:35:03.630Z,97549.13
2023-01-19T21:38:10.784Z,97559.59
2023-01-19T21:41:17.364Z,97561.50
2023-01-19T21:44:26.818Z,97570.47
2023-01-19T21:47:32.684Z,97575.50
2023-01-19T21:50:39.861Z,97582.72
2023-01-19T21:53:47.363Z,97576.19
2023-01-19T21:56:54.197Z,97571.69
2023-01-19T22:00:02.684Z,97591.19
2023-01-19T22:03:14.721Z,97581.38
2023-01-19T22:06:20.697Z,97591.50
2023-01-19T22:09:27.345Z,97591.06
2023-01-19T22:12:33.255Z,97592.72
2023-01-19T22:15:42.551Z,97590.22
2023-01-19T22:18:54.215Z,97593.50
2023-01-19T22:22:02.351Z,97590.59
2023-01-19T22:25:09.482Z,97595.09
2023-01-19T22:28:16.216Z,97604.91
2023-01-19T22:31:26.305Z,97598.47
2023-01-19T22:34:32.986Z,97600.53
2023-01-19T22:37:40.155Z,97606.38
2023-01-19T22:40:46.720Z,97600.53
2023-01-19T22:43:56.680Z,97599.81
2023-01-19T22:47:05.853Z,97602.03
2023-01-19T22:50:13.511Z,97607.06
2023-01-19T22:53:20.073Z,97618.84
2023-01-19T22:56:28.944Z,97613.53
2023-01-19T22:59:35.617Z,97619.69
2023-01-19T23:02:44.053Z,97622.94
2023-01-19T23:05:50.748Z,97623.22
2023-01-19T23:09:00.491Z,97617.09
2023-01-19T23:12:08.009Z,97619.13
2023-01-19T23:15:14.909Z,97611.34
2023-01-19T23:18:24.241Z,97610.25
2023-01-19T23:21:33.558Z,97617.09
2023-01-19T23:24:40.402Z,97625.28
2023-01-19T23:27:46.247Z,97633.75
2023-01-19T23:30:53.031Z,97634.94
2023-01-19T23:34:05.034Z,97644.28
2023-01-19T23:37:12.027Z,97655.75
2023-01-19T23:40:18.314Z,97659.69
2023-01-19T23:43:24.894Z,97653.53
2023-01-19T23:46:31.396Z,97653.09
2023-01-19T23:49:41.355Z,97650.94
2023-01-19T23:52:47.310Z,97655.06
2023-01-19T23:55:53.950Z,97656.56
2023-01-19T23:59:02.792Z,97648.66
